sensor_id;sensor_type;location;lat;lon;timestamp;temperature;humidity
76293;DHT22;67256;51.154;4.164;2023-08-06T00:00:26;18.50;82.80
76293;DHT22;67256;51.154;4.164;2023-08-06T00:02:52;18.50;82.90
76293;DHT22;67256;51.154;4.164;2023-08-06T00:05:17;18.40;82.90
76293;DHT22;67256;51.154;4.164;2023-08-06T00:07:47;18.40;83.10
76293;DHT22;67256;51.154;4.164;2023-08-06T00:10:13;18.50;82.90
76293;DHT22;67256;51.154;4.164;2023-08-06T00:12:38;18.50;82.20
76293;DHT22;67256;51.154;4.164;2023-08-06T00:15:04;18.40;83.00
76293;DHT22;67256;51.154;4.164;2023-08-06T00:17:30;18.30;83.30
76293;DHT22;67256;51.154;4.164;2023-08-06T00:19:56;18.20;84.00
76293;DHT22;67256;51.154;4.164;2023-08-06T00:22:21;18.30;83.60
76293;DHT22;67256;51.154;4.164;2023-08-06T00:24:47;18.30;83.30
76293;DHT22;67256;51.154;4.164;2023-08-06T00:27:12;18.40;83.30
76293;DHT22;67256;51.154;4.164;2023-08-06T00:29:39;18.40;83.10
76293;DHT22;67256;51.154;4.164;2023-08-06T00:32:05;18.30;83.10
76293;DHT22;67256;51.154;4.164;2023-08-06T00:34:30;18.40;82.70
76293;DHT22;67256;51.154;4.164;2023-08-06T00:36:56;18.40;83.00
76293;DHT22;67256;51.154;4.164;2023-08-06T00:39:21;18.40;82.80
76293;DHT22;67256;51.154;4.164;2023-08-06T00:41:48;18.40;83.10
76293;DHT22;67256;51.154;4.164;2023-08-06T00:44:14;18.40;82.90
76293;DHT22;67256;51.154;4.164;2023-08-06T00:46:39;18.40;82.60
76293;DHT22;67256;51.154;4.164;2023-08-06T00:49:06;18.40;82.50
76293;DHT22;67256;51.154;4.164;2023-08-06T00:51:32;18.50;82.60
76293;DHT22;67256;51.154;4.164;2023-08-06T00:53:58;18.40;82.80
76293;DHT22;67256;51.154;4.164;2023-08-06T00:56:24;18.40;82.80
76293;DHT22;67256;51.154;4.164;2023-08-06T00:58:51;18.40;82.70
76293;DHT22;67256;51.154;4.164;2023-08-06T01:01:16;18.40;83.20
76293;DHT22;67256;51.154;4.164;2023-08-06T01:03:42;18.40;83.40
76293;DHT22;67256;51.154;4.164;2023-08-06T01:06:08;18.30;83.50
76293;DHT22;67256;51.154;4.164;2023-08-06T01:09:01;18.40;83.50
76293;DHT22;67256;51.154;4.164;2023-08-06T01:14:30;18.50;83.00
76293;DHT22;67256;51.154;4.164;2023-08-06T01:16:59;18.40;83.40
76293;DHT22;67256;51.154;4.164;2023-08-06T01:19:26;18.40;83.50
76293;DHT22;67256;51.154;4.164;2023-08-06T01:21:52;18.40;83.40
76293;DHT22;67256;51.154;4.164;2023-08-06T01:24:18;18.40;83.10
76293;DHT22;67256;51.154;4.164;2023-08-06T01:27:06;18.40;82.90
76293;DHT22;67256;51.154;4.164;2023-08-06T01:29:46;18.40;83.00
76293;DHT22;67256;51.154;4.164;2023-08-06T01:32:14;18.30;83.40
76293;DHT22;67256;51.154;4.164;2023-08-06T01:34:43;18.30;83.50
76293;DHT22;67256;51.154;4.164;2023-08-06T01:37:10;18.40;83.10
76293;DHT22;67256;51.154;4.164;2023-08-06T01:39:36;18.40;82.60
76293;DHT22;67256;51.154;4.164;2023-08-06T01:42:02;18.40;82.30
76293;DHT22;67256;51.154;4.164;2023-08-06T01:44:28;18.40;82.50
76293;DHT22;67256;51.154;4.164;2023-08-06T01:46:54;18.30;82.90
76293;DHT22;67256;51.154;4.164;2023-08-06T01:49:20;18.20;83.50
76293;DHT22;67256;51.154;4.164;2023-08-06T01:51:46;18.20;83.20
76293;DHT22;67256;51.154;4.164;2023-08-06T01:54:12;18.10;84.10
76293;DHT22;67256;51.154;4.164;2023-08-06T01:56:37;18.20;83.70
76293;DHT22;67256;51.154;4.164;2023-08-06T01:59:03;18.20;83.50
76293;DHT22;67256;51.154;4.164;2023-08-06T02:01:28;18.10;83.70
76293;DHT22;67256;51.154;4.164;2023-08-06T02:03:54;18.00;84.60
76293;DHT22;67256;51.154;4.164;2023-08-06T02:06:20;18.10;84.50
76293;DHT22;67256;51.154;4.164;2023-08-06T02:08:46;18.00;84.60
76293;DHT22;67256;51.154;4.164;2023-08-06T02:11:12;18.00;84.90
76293;DHT22;67256;51.154;4.164;2023-08-06T02:13:37;18.00;84.50
76293;DHT22;67256;51.154;4.164;2023-08-06T02:16:03;17.80;85.80
76293;DHT22;67256;51.154;4.164;2023-08-06T02:18:29;17.90;86.10
76293;DHT22;67256;51.154;4.164;2023-08-06T02:20:58;17.90;85.40
76293;DHT22;67256;51.154;4.164;2023-08-06T02:23:25;18.00;84.60
76293;DHT22;67256;51.154;4.164;2023-08-06T02:26:02;17.90;85.00
76293;DHT22;67256;51.154;4.164;2023-08-06T02:28:28;17.90;84.80
76293;DHT22;67256;51.154;4.164;2023-08-06T02:30:55;17.80;85.00
76293;DHT22;67256;51.154;4.164;2023-08-06T02:33:21;17.70;85.60
76293;DHT22;67256;51.154;4.164;2023-08-06T02:35:46;17.60;86.00
76293;DHT22;67256;51.154;4.164;2023-08-06T02:38:12;17.60;86.50
76293;DHT22;67256;51.154;4.164;2023-08-06T02:40:43;17.50;86.60
76293;DHT22;67256;51.154;4.164;2023-08-06T02:43:10;17.60;86.80
76293;DHT22;67256;51.154;4.164;2023-08-06T02:45:35;17.40;87.00
76293;DHT22;67256;51.154;4.164;2023-08-06T02:48:01;17.40;87.60
76293;DHT22;67256;51.154;4.164;2023-08-06T02:50:28;17.40;87.70
76293;DHT22;67256;51.154;4.164;2023-08-06T02:52:53;17.30;88.30
76293;DHT22;67256;51.154;4.164;2023-08-06T02:55:19;17.10;88.20
76293;DHT22;67256;51.154;4.164;2023-08-06T02:57:45;16.80;89.40
76293;DHT22;67256;51.154;4.164;2023-08-06T03:00:10;16.70;90.30
76293;DHT22;67256;51.154;4.164;2023-08-06T03:02:37;16.80;90.20
76293;DHT22;67256;51.154;4.164;2023-08-06T03:05:03;16.80;90.30
76293;DHT22;67256;51.154;4.164;2023-08-06T03:07:31;16.80;90.60
76293;DHT22;67256;51.154;4.164;2023-08-06T03:09:58;16.90;90.50
76293;DHT22;67256;51.154;4.164;2023-08-06T03:12:26;16.90;90.40
76293;DHT22;67256;51.154;4.164;2023-08-06T03:14:52;16.70;91.20
76293;DHT22;67256;51.154;4.164;2023-08-06T03:17:17;16.80;91.50
76293;DHT22;67256;51.154;4.164;2023-08-06T03:19:43;16.90;91.00
76293;DHT22;67256;51.154;4.164;2023-08-06T03:22:08;16.90;90.70
76293;DHT22;67256;51.154;4.164;2023-08-06T03:24:34;16.70;90.90
76293;DHT22;67256;51.154;4.164;2023-08-06T03:27:01;16.60;91.50
76293;DHT22;67256;51.154;4.164;2023-08-06T03:29:27;16.40;91.90
76293;DHT22;67256;51.154;4.164;2023-08-06T03:31:52;16.30;92.40
76293;DHT22;67256;51.154;4.164;2023-08-06T03:34:18;16.30;92.40
76293;DHT22;67256;51.154;4.164;2023-08-06T03:36:44;16.20;93.00
76293;DHT22;67256;51.154;4.164;2023-08-06T03:39:10;16.20;93.10
76293;DHT22;67256;51.154;4.164;2023-08-06T03:41:35;16.20;93.00
76293;DHT22;67256;51.154;4.164;2023-08-06T03:44:01;16.10;94.70
76293;DHT22;67256;51.154;4.164;2023-08-06T03:46:29;15.90;95.60
76293;DHT22;67256;51.154;4.164;2023-08-06T03:48:55;15.60;96.60
76293;DHT22;67256;51.154;4.164;2023-08-06T03:51:22;15.40;97.60
76293;DHT22;67256;51.154;4.164;2023-08-06T03:53:48;15.10;98.00
76293;DHT22;67256;51.154;4.164;2023-08-06T03:56:13;15.10;99.00
76293;DHT22;67256;51.154;4.164;2023-08-06T03:58:39;14.90;99.40
76293;DHT22;67256;51.154;4.164;2023-08-06T04:01:05;15.00;99.90
76293;DHT22;67256;51.154;4.164;2023-08-06T04:03:30;15.00;99.90
76293;DHT22;67256;51.154;4.164;2023-08-06T04:05:56;14.80;99.90
76293;DHT22;67256;51.154;4.164;2023-08-06T04:08:22;14.50;99.90
76293;DHT22;67256;51.154;4.164;2023-08-06T04:10:52;14.40;99.90
76293;DHT22;67256;51.154;4.164;2023-08-06T04:13:18;14.30;99.90
76293;DHT22;67256;51.154;4.164;2023-08-06T04:15:44;14.30;99.90
76293;DHT22;67256;51.154;4.164;2023-08-06T04:18:09;14.30;99.90
76293;DHT22;67256;51.154;4.164;2023-08-06T04:20:42;14.30;99.90
76293;DHT22;67256;51.154;4.164;2023-08-06T04:23:08;14.30;99.90
76293;DHT22;67256;51.154;4.164;2023-08-06T04:25:34;14.30;99.90
76293;DHT22;67256;51.154;4.164;2023-08-06T04:28:00;14.40;99.90
76293;DHT22;67256;51.154;4.164;2023-08-06T04:30:26;14.40;99.90
76293;DHT22;67256;51.154;4.164;2023-08-06T04:32:51;14.50;99.90
76293;DHT22;67256;51.154;4.164;2023-08-06T04:35:17;14.30;99.90
76293;DHT22;67256;51.154;4.164;2023-08-06T04:37:43;14.20;99.90
76293;DHT22;67256;51.154;4.164;2023-08-06T04:40:09;14.30;99.90
76293;DHT22;67256;51.154;4.164;2023-08-06T04:42:35;14.20;99.90
76293;DHT22;67256;51.154;4.164;2023-08-06T04:45:01;14.30;99.90
76293;DHT22;67256;51.154;4.164;2023-08-06T04:47:28;14.40;99.90
76293;DHT22;67256;51.154;4.164;2023-08-06T04:49:54;14.40;99.90
76293;DHT22;67256;51.154;4.164;2023-08-06T04:52:19;14.40;99.90
76293;DHT22;67256;51.154;4.164;2023-08-06T04:54:45;14.40;99.90
76293;DHT22;67256;51.154;4.164;2023-08-06T04:57:11;14.40;99.90
76293;DHT22;67256;51.154;4.164;2023-08-06T04:59:36;14.40;99.90
76293;DHT22;67256;51.154;4.164;2023-08-06T05:02:02;14.40;99.90
76293;DHT22;67256;51.154;4.164;2023-08-06T05:04:28;14.50;99.90
76293;DHT22;67256;51.154;4.164;2023-08-06T05:06:54;14.50;99.90
76293;DHT22;67256;51.154;4.164;2023-08-06T05:09:20;14.50;99.90
76293;DHT22;67256;51.154;4.164;2023-08-06T05:11:49;14.40;99.90
76293;DHT22;67256;51.154;4.164;2023-08-06T05:14:14;14.70;99.90
76293;DHT22;67256;51.154;4.164;2023-08-06T05:16:40;14.60;99.90
76293;DHT22;67256;51.154;4.164;2023-08-06T05:19:06;14.60;99.90
76293;DHT22;67256;51.154;4.164;2023-08-06T05:21:31;14.40;99.90
76293;DHT22;67256;51.154;4.164;2023-08-06T05:23:57;14.40;99.90
76293;DHT22;67256;51.154;4.164;2023-08-06T05:26:23;14.40;99.90
76293;DHT22;67256;51.154;4.164;2023-08-06T05:28:49;14.40;99.90
76293;DHT22;67256;51.154;4.164;2023-08-06T05:31:14;14.30;99.90
76293;DHT22;67256;51.154;4.164;2023-08-06T05:33:40;14.30;99.90
76293;DHT22;67256;51.154;4.164;2023-08-06T05:36:06;14.30;99.90
76293;DHT22;67256;51.154;4.164;2023-08-06T05:38:31;14.30;99.90
76293;DHT22;67256;51.154;4.164;2023-08-06T05:40:57;14.30;99.90
76293;DHT22;67256;51.154;4.164;2023-08-06T05:43:23;14.40;99.90
76293;DHT22;67256;51.154;4.164;2023-08-06T05:45:51;14.40;99.90
76293;DHT22;67256;51.154;4.164;2023-08-06T05:48:17;14.40;99.90
76293;DHT22;67256;51.154;4.164;2023-08-06T05:50:43;14.40;99.90
76293;DHT22;67256;51.154;4.164;2023-08-06T05:53:09;14.20;99.90
76293;DHT22;67256;51.154;4.164;2023-08-06T05:55:35;14.30;99.90
76293;DHT22;67256;51.154;4.164;2023-08-06T05:58:01;14.30;99.90
76293;DHT22;67256;51.154;4.164;2023-08-06T06:00:26;14.40;99.90
76293;DHT22;67256;51.154;4.164;2023-08-06T06:02:52;14.20;99.90
76293;DHT22;67256;51.154;4.164;2023-08-06T06:05:18;14.20;99.90
76293;DHT22;67256;51.154;4.164;2023-08-06T06:07:44;14.10;99.90
76293;DHT22;67256;51.154;4.164;2023-08-06T06:10:10;14.20;99.90
76293;DHT22;67256;51.154;4.164;2023-08-06T06:12:37;14.20;99.90
76293;DHT22;67256;51.154;4.164;2023-08-06T06:15:03;14.30;99.90
76293;DHT22;67256;51.154;4.164;2023-08-06T06:17:29;14.10;99.90
76293;DHT22;67256;51.154;4.164;2023-08-06T06:19:55;14.20;99.90
76293;DHT22;67256;51.154;4.164;2023-08-06T06:22:21;14.20;99.90
76293;DHT22;67256;51.154;4.164;2023-08-06T06:24:46;14.20;99.90
76293;DHT22;67256;51.154;4.164;2023-08-06T06:27:12;14.20;99.90
76293;DHT22;67256;51.154;4.164;2023-08-06T06:29:39;14.20;99.90
76293;DHT22;67256;51.154;4.164;2023-08-06T06:32:04;14.20;99.90
76293;DHT22;67256;51.154;4.164;2023-08-06T06:34:30;14.20;99.90
76293;DHT22;67256;51.154;4.164;2023-08-06T06:36:56;14.20;99.90
76293;DHT22;67256;51.154;4.164;2023-08-06T06:39:21;14.10;99.90
76293;DHT22;67256;51.154;4.164;2023-08-06T06:41:47;14.10;99.90
76293;DHT22;67256;51.154;4.164;2023-08-06T06:44:13;14.10;99.90
76293;DHT22;67256;51.154;4.164;2023-08-06T06:46:40;14.10;99.90
76293;DHT22;67256;51.154;4.164;2023-08-06T06:49:06;14.00;99.90
76293;DHT22;67256;51.154;4.164;2023-08-06T06:51:32;14.10;99.90
76293;DHT22;67256;51.154;4.164;2023-08-06T06:53:58;14.30;99.90
76293;DHT22;67256;51.154;4.164;2023-08-06T06:56:24;14.30;99.90
76293;DHT22;67256;51.154;4.164;2023-08-06T06:58:49;14.30;99.50
76293;DHT22;67256;51.154;4.164;2023-08-06T07:01:15;14.30;99.90
76293;DHT22;67256;51.154;4.164;2023-08-06T07:03:41;14.10;99.20
76293;DHT22;67256;51.154;4.164;2023-08-06T07:06:07;14.10;99.90
76293;DHT22;67256;51.154;4.164;2023-08-06T07:08:33;14.10;99.90
76293;DHT22;67256;51.154;4.164;2023-08-06T07:11:03;14.10;99.40
76293;DHT22;67256;51.154;4.164;2023-08-06T07:13:30;14.20;99.90
76293;DHT22;67256;51.154;4.164;2023-08-06T07:15:56;14.20;99.90
76293;DHT22;67256;51.154;4.164;2023-08-06T07:18:22;14.30;99.90
76293;DHT22;67256;51.154;4.164;2023-08-06T07:20:52;14.40;99.90
76293;DHT22;67256;51.154;4.164;2023-08-06T07:23:22;14.50;99.90
76293;DHT22;67256;51.154;4.164;2023-08-06T07:25:48;14.50;99.90
76293;DHT22;67256;51.154;4.164;2023-08-06T07:28:15;14.50;99.90
76293;DHT22;67256;51.154;4.164;2023-08-06T07:30:41;14.50;99.90
76293;DHT22;67256;51.154;4.164;2023-08-06T07:33:07;14.50;99.90
76293;DHT22;67256;51.154;4.164;2023-08-06T07:35:33;14.40;99.50
76293;DHT22;67256;51.154;4.164;2023-08-06T07:37:59;14.40;99.80
76293;DHT22;67256;51.154;4.164;2023-08-06T07:40:25;14.40;99.90
76293;DHT22;67256;51.154;4.164;2023-08-06T07:42:51;14.40;99.90
76293;DHT22;67256;51.154;4.164;2023-08-06T07:45:16;14.30;99.70
76293;DHT22;67256;51.154;4.164;2023-08-06T07:47:42;14.40;99.90
76293;DHT22;67256;51.154;4.164;2023-08-06T07:50:09;14.40;99.90
76293;DHT22;67256;51.154;4.164;2023-08-06T07:52:35;14.30;99.40
76293;DHT22;67256;51.154;4.164;2023-08-06T07:55:01;14.20;99.20
76293;DHT22;67256;51.154;4.164;2023-08-06T07:57:30;14.20;99.30
76293;DHT22;67256;51.154;4.164;2023-08-06T07:59:56;14.10;99.30
76293;DHT22;67256;51.154;4.164;2023-08-06T08:02:22;14.20;99.30
76293;DHT22;67256;51.154;4.164;2023-08-06T08:04:48;14.20;99.90
76293;DHT22;67256;51.154;4.164;2023-08-06T08:07:14;14.20;99.80
76293;DHT22;67256;51.154;4.164;2023-08-06T08:09:40;14.20;99.70
76293;DHT22;67256;51.154;4.164;2023-08-06T08:12:06;14.40;99.90
76293;DHT22;67256;51.154;4.164;2023-08-06T08:14:32;14.40;99.30
76293;DHT22;67256;51.154;4.164;2023-08-06T08:17:04;14.50;99.90
76293;DHT22;67256;51.154;4.164;2023-08-06T08:19:31;14.50;99.90
76293;DHT22;67256;51.154;4.164;2023-08-06T08:21:57;14.50;99.90
76293;DHT22;67256;51.154;4.164;2023-08-06T08:24:23;14.40;99.10
76293;DHT22;67256;51.154;4.164;2023-08-06T08:26:52;14.50;99.90
76293;DHT22;67256;51.154;4.164;2023-08-06T08:29:19;14.40;99.60
76293;DHT22;67256;51.154;4.164;2023-08-06T08:31:45;14.30;99.10
76293;DHT22;67256;51.154;4.164;2023-08-06T08:34:11;14.40;99.90
76293;DHT22;67256;51.154;4.164;2023-08-06T08:36:37;14.50;99.70
76293;DHT22;67256;51.154;4.164;2023-08-06T08:39:03;14.40;99.40
76293;DHT22;67256;51.154;4.164;2023-08-06T08:41:30;14.30;99.80
76293;DHT22;67256;51.154;4.164;2023-08-06T08:43:58;14.30;99.50
76293;DHT22;67256;51.154;4.164;2023-08-06T08:46:27;14.20;99.70
76293;DHT22;67256;51.154;4.164;2023-08-06T08:48:55;14.40;99.90
76293;DHT22;67256;51.154;4.164;2023-08-06T08:51:21;14.50;99.10
76293;DHT22;67256;51.154;4.164;2023-08-06T08:53:48;14.50;99.30
76293;DHT22;67256;51.154;4.164;2023-08-06T08:56:15;14.70;99.90
76293;DHT22;67256;51.154;4.164;2023-08-06T08:58:41;14.60;99.40
76293;DHT22;67256;51.154;4.164;2023-08-06T09:01:07;14.70;98.90
76293;DHT22;67256;51.154;4.164;2023-08-06T09:03:35;14.70;98.60
76293;DHT22;67256;51.154;4.164;2023-08-06T09:06:02;14.80;99.60
76293;DHT22;67256;51.154;4.164;2023-08-06T09:08:34;14.90;98.90
76293;DHT22;67256;51.154;4.164;2023-08-06T09:11:02;14.90;98.40
76293;DHT22;67256;51.154;4.164;2023-08-06T09:13:33;14.80;98.90
76293;DHT22;67256;51.154;4.164;2023-08-06T09:15:58;14.80;99.00
76293;DHT22;67256;51.154;4.164;2023-08-06T09:18:28;15.00;98.50
76293;DHT22;67256;51.154;4.164;2023-08-06T09:20:54;15.00;98.30
76293;DHT22;67256;51.154;4.164;2023-08-06T09:23:21;14.90;98.80
76293;DHT22;67256;51.154;4.164;2023-08-06T09:25:53;14.80;98.00
76293;DHT22;67256;51.154;4.164;2023-08-06T09:28:19;14.70;98.10
76293;DHT22;67256;51.154;4.164;2023-08-06T09:30:47;14.70;98.40
76293;DHT22;67256;51.154;4.164;2023-08-06T09:33:18;14.90;99.10
76293;DHT22;67256;51.154;4.164;2023-08-06T09:35:46;15.00;99.10
76293;DHT22;67256;51.154;4.164;2023-08-06T09:38:12;15.00;98.30
76293;DHT22;67256;51.154;4.164;2023-08-06T09:40:39;15.00;98.90
76293;DHT22;67256;51.154;4.164;2023-08-06T09:43:05;14.90;98.10
76293;DHT22;67256;51.154;4.164;2023-08-06T09:45:35;14.90;97.50
76293;DHT22;67256;51.154;4.164;2023-08-06T09:48:06;14.80;98.00
76293;DHT22;67256;51.154;4.164;2023-08-06T09:50:34;14.80;97.60
76293;DHT22;67256;51.154;4.164;2023-08-06T09:53:07;14.90;97.70
76293;DHT22;67256;51.154;4.164;2023-08-06T09:55:34;14.90;97.50
76293;DHT22;67256;51.154;4.164;2023-08-06T09:58:00;14.90;98.40
76293;DHT22;67256;51.154;4.164;2023-08-06T10:00:26;14.90;98.10
76293;DHT22;67256;51.154;4.164;2023-08-06T10:02:53;14.90;97.20
76293;DHT22;67256;51.154;4.164;2023-08-06T10:05:22;15.00;97.60
76293;DHT22;67256;51.154;4.164;2023-08-06T10:07:50;15.00;97.20
76293;DHT22;67256;51.154;4.164;2023-08-06T10:10:19;14.90;97.30
76293;DHT22;67256;51.154;4.164;2023-08-06T10:12:50;14.90;97.90
76293;DHT22;67256;51.154;4.164;2023-08-06T10:15:20;14.80;97.10
76293;DHT22;67256;51.154;4.164;2023-08-06T10:17:47;14.60;97.30
76293;DHT22;67256;51.154;4.164;2023-08-06T10:20:14;14.60;97.90
76293;DHT22;67256;51.154;4.164;2023-08-06T10:22:44;14.50;97.60
76293;DHT22;67256;51.154;4.164;2023-08-06T10:25:10;14.60;97.50
76293;DHT22;67256;51.154;4.164;2023-08-06T10:32:51;14.70;97.10
76293;DHT22;67256;51.154;4.164;2023-08-06T10:35:43;14.70;96.50
76293;DHT22;67256;51.154;4.164;2023-08-06T10:38:20;14.80;96.90
76293;DHT22;67256;51.154;4.164;2023-08-06T10:45:58;15.00;97.00
76293;DHT22;67256;51.154;4.164;2023-08-06T10:48:35;14.90;97.20
76293;DHT22;67256;51.154;4.164;2023-08-06T10:51:02;15.00;97.50
76293;DHT22;67256;51.154;4.164;2023-08-06T10:53:28;14.90;96.90
76293;DHT22;67256;51.154;4.164;2023-08-06T10:55:54;14.80;97.50
76293;DHT22;67256;51.154;4.164;2023-08-06T10:58:20;14.60;96.20
76293;DHT22;67256;51.154;4.164;2023-08-06T11:00:46;14.50;97.10
76293;DHT22;67256;51.154;4.164;2023-08-06T11:03:12;14.50;97.50
76293;DHT22;67256;51.154;4.164;2023-08-06T11:05:38;14.50;97.70
76293;DHT22;67256;51.154;4.164;2023-08-06T11:08:04;14.50;97.40
76293;DHT22;67256;51.154;4.164;2023-08-06T11:10:33;14.40;97.30
76293;DHT22;67256;51.154;4.164;2023-08-06T11:13:03;14.40;97.60
76293;DHT22;67256;51.154;4.164;2023-08-06T11:15:29;14.40;97.40
76293;DHT22;67256;51.154;4.164;2023-08-06T11:17:55;14.40;97.10
76293;DHT22;67256;51.154;4.164;2023-08-06T11:20:21;14.40;97.50
76293;DHT22;67256;51.154;4.164;2023-08-06T11:22:50;14.40;97.10
76293;DHT22;67256;51.154;4.164;2023-08-06T11:25:15;14.50;98.30
76293;DHT22;67256;51.154;4.164;2023-08-06T11:27:41;14.70;97.70
76293;DHT22;67256;51.154;4.164;2023-08-06T11:30:07;14.80;97.70
76293;DHT22;67256;51.154;4.164;2023-08-06T11:32:45;14.90;96.90
76293;DHT22;67256;51.154;4.164;2023-08-06T11:35:13;14.90;97.20
76293;DHT22;67256;51.154;4.164;2023-08-06T11:37:43;14.90;95.70
76293;DHT22;67256;51.154;4.164;2023-08-06T11:40:09;14.90;96.60
76293;DHT22;67256;51.154;4.164;2023-08-06T11:42:36;14.90;95.60
76293;DHT22;67256;51.154;4.164;2023-08-06T11:45:05;14.90;95.50
76293;DHT22;67256;51.154;4.164;2023-08-06T11:47:31;14.90;96.60
76293;DHT22;67256;51.154;4.164;2023-08-06T11:49:58;14.90;96.50
76293;DHT22;67256;51.154;4.164;2023-08-06T11:52:25;15.00;96.60
76293;DHT22;67256;51.154;4.164;2023-08-06T11:55:07;15.10;95.90
76293;DHT22;67256;51.154;4.164;2023-08-06T11:57:36;15.10;95.00
76293;DHT22;67256;51.154;4.164;2023-08-06T12:00:03;15.10;95.60
76293;DHT22;67256;51.154;4.164;2023-08-06T12:02:32;14.90;94.10
76293;DHT22;67256;51.154;4.164;2023-08-06T12:05:21;14.80;95.20
76293;DHT22;67256;51.154;4.164;2023-08-06T12:07:57;14.70;95.60
76293;DHT22;67256;51.154;4.164;2023-08-06T12:10:25;14.80;95.20
76293;DHT22;67256;51.154;4.164;2023-08-06T12:12:52;14.80;94.90
76293;DHT22;67256;51.154;4.164;2023-08-06T12:15:18;14.80;94.90
76293;DHT22;67256;51.154;4.164;2023-08-06T12:17:44;14.80;94.30
76293;DHT22;67256;51.154;4.164;2023-08-06T12:20:10;14.80;95.00
76293;DHT22;67256;51.154;4.164;2023-08-06T12:22:36;14.60;95.70
76293;DHT22;67256;51.154;4.164;2023-08-06T12:25:08;14.50;96.60
76293;DHT22;67256;51.154;4.164;2023-08-06T12:27:38;14.50;97.10
76293;DHT22;67256;51.154;4.164;2023-08-06T12:30:05;14.40;97.80
76293;DHT22;67256;51.154;4.164;2023-08-06T12:32:31;14.30;97.90
76293;DHT22;67256;51.154;4.164;2023-08-06T12:34:57;14.30;98.00
76293;DHT22;67256;51.154;4.164;2023-08-06T12:37:24;14.30;98.30
76293;DHT22;67256;51.154;4.164;2023-08-06T12:39:50;14.40;97.90
76293;DHT22;67256;51.154;4.164;2023-08-06T12:42:16;14.60;98.00
76293;DHT22;67256;51.154;4.164;2023-08-06T12:44:42;14.70;97.00
76293;DHT22;67256;51.154;4.164;2023-08-06T12:47:08;14.60;96.60
76293;DHT22;67256;51.154;4.164;2023-08-06T12:49:34;14.60;97.20
76293;DHT22;67256;51.154;4.164;2023-08-06T12:52:00;14.50;97.40
76293;DHT22;67256;51.154;4.164;2023-08-06T12:54:27;14.40;97.60
76293;DHT22;67256;51.154;4.164;2023-08-06T12:56:53;14.20;98.30
76293;DHT22;67256;51.154;4.164;2023-08-06T12:59:19;14.10;98.80
76293;DHT22;67256;51.154;4.164;2023-08-06T13:01:45;14.10;98.70
76293;DHT22;67256;51.154;4.164;2023-08-06T13:04:11;14.00;99.40
76293;DHT22;67256;51.154;4.164;2023-08-06T13:06:37;13.90;99.50
76293;DHT22;67256;51.154;4.164;2023-08-06T13:09:04;13.80;99.90
76293;DHT22;67256;51.154;4.164;2023-08-06T13:11:31;13.70;99.80
76293;DHT22;67256;51.154;4.164;2023-08-06T13:14:05;13.50;99.90
76293;DHT22;67256;51.154;4.164;2023-08-06T13:16:31;13.50;99.90
76293;DHT22;67256;51.154;4.164;2023-08-06T13:18:57;13.60;99.90
76293;DHT22;67256;51.154;4.164;2023-08-06T13:21:22;13.60;99.90
76293;DHT22;67256;51.154;4.164;2023-08-06T13:23:48;13.50;99.90
76293;DHT22;67256;51.154;4.164;2023-08-06T13:26:14;13.60;99.90
76293;DHT22;67256;51.154;4.164;2023-08-06T13:28:41;13.60;99.90
76293;DHT22;67256;51.154;4.164;2023-08-06T13:31:07;13.60;99.90
76293;DHT22;67256;51.154;4.164;2023-08-06T13:33:33;13.50;99.90
76293;DHT22;67256;51.154;4.164;2023-08-06T13:35:59;13.50;99.90
76293;DHT22;67256;51.154;4.164;2023-08-06T13:38:24;13.50;99.90
76293;DHT22;67256;51.154;4.164;2023-08-06T13:40:50;13.50;99.90
76293;DHT22;67256;51.154;4.164;2023-08-06T13:43:15;13.60;99.90
76293;DHT22;67256;51.154;4.164;2023-08-06T13:45:44;13.60;99.90
76293;DHT22;67256;51.154;4.164;2023-08-06T13:48:10;13.60;99.90
76293;DHT22;67256;51.154;4.164;2023-08-06T13:50:36;13.70;99.90
76293;DHT22;67256;51.154;4.164;2023-08-06T13:53:03;13.80;99.90
76293;DHT22;67256;51.154;4.164;2023-08-06T13:55:29;13.80;99.90
76293;DHT22;67256;51.154;4.164;2023-08-06T13:57:55;13.80;99.90
76293;DHT22;67256;51.154;4.164;2023-08-06T14:00:20;13.70;99.90
76293;DHT22;67256;51.154;4.164;2023-08-06T14:02:46;13.70;99.90
76293;DHT22;67256;51.154;4.164;2023-08-06T14:05:12;13.70;99.90
76293;DHT22;67256;51.154;4.164;2023-08-06T14:07:38;13.80;99.90
76293;DHT22;67256;51.154;4.164;2023-08-06T14:10:04;13.70;99.90
76293;DHT22;67256;51.154;4.164;2023-08-06T14:12:30;13.60;99.90
76293;DHT22;67256;51.154;4.164;2023-08-06T14:14:56;13.60;99.90
76293;DHT22;67256;51.154;4.164;2023-08-06T14:17:22;13.50;99.90
76293;DHT22;67256;51.154;4.164;2023-08-06T14:19:47;13.50;99.90
76293;DHT22;67256;51.154;4.164;2023-08-06T14:22:13;13.60;99.90
76293;DHT22;67256;51.154;4.164;2023-08-06T14:24:39;13.50;99.90
76293;DHT22;67256;51.154;4.164;2023-08-06T14:27:05;13.50;99.90
76293;DHT22;67256;51.154;4.164;2023-08-06T14:29:31;13.60;99.90
76293;DHT22;67256;51.154;4.164;2023-08-06T14:31:57;13.60;99.90
76293;DHT22;67256;51.154;4.164;2023-08-06T14:34:23;13.60;99.90
76293;DHT22;67256;51.154;4.164;2023-08-06T14:36:49;13.60;99.90
76293;DHT22;67256;51.154;4.164;2023-08-06T14:39:14;13.60;99.90
76293;DHT22;67256;51.154;4.164;2023-08-06T14:41:40;13.60;99.90
76293;DHT22;67256;51.154;4.164;2023-08-06T14:44:06;13.60;99.90
76293;DHT22;67256;51.154;4.164;2023-08-06T14:46:33;13.70;99.90
76293;DHT22;67256;51.154;4.164;2023-08-06T14:48:58;13.60;99.90
76293;DHT22;67256;51.154;4.164;2023-08-06T14:51:24;13.60;99.90
76293;DHT22;67256;51.154;4.164;2023-08-06T14:53:50;13.70;99.90
76293;DHT22;67256;51.154;4.164;2023-08-06T14:56:16;13.80;99.90
76293;DHT22;67256;51.154;4.164;2023-08-06T14:58:42;13.80;99.90
76293;DHT22;67256;51.154;4.164;2023-08-06T15:01:07;13.90;99.90
76293;DHT22;67256;51.154;4.164;2023-08-06T15:03:33;13.80;99.90
76293;DHT22;67256;51.154;4.164;2023-08-06T15:05:59;13.90;99.90
76293;DHT22;67256;51.154;4.164;2023-08-06T15:08:25;13.80;99.90
76293;DHT22;67256;51.154;4.164;2023-08-06T15:10:51;13.80;99.90
76293;DHT22;67256;51.154;4.164;2023-08-06T15:13:18;13.80;99.90
76293;DHT22;67256;51.154;4.164;2023-08-06T15:15:46;13.80;99.90
76293;DHT22;67256;51.154;4.164;2023-08-06T15:18:12;13.80;99.90
76293;DHT22;67256;51.154;4.164;2023-08-06T15:20:38;13.80;99.90
76293;DHT22;67256;51.154;4.164;2023-08-06T15:23:03;14.00;99.90
76293;DHT22;67256;51.154;4.164;2023-08-06T15:25:29;13.90;99.90
76293;DHT22;67256;51.154;4.164;2023-08-06T15:27:55;13.90;99.90
76293;DHT22;67256;51.154;4.164;2023-08-06T15:30:21;13.90;99.90
76293;DHT22;67256;51.154;4.164;2023-08-06T15:32:47;13.80;99.90
76293;DHT22;67256;51.154;4.164;2023-08-06T15:35:13;13.80;99.90
76293;DHT22;67256;51.154;4.164;2023-08-06T15:37:39;13.70;99.90
76293;DHT22;67256;51.154;4.164;2023-08-06T15:40:09;13.80;99.90